This is the latest recevied weather packets stored in our database for station/object HG6IQI-10. If no packets are shown the sender has not sent any weather packets the latest 10 day(s).
| Time | Temp. | Humidity | Pressure | Rain* | Wind** | Luminosity | Snow |
|---|---|---|---|---|---|---|---|
| 1777621692 | 11.67° C | 31% | 1028.2 hPa | - | - | - | - |
| 1777620792 | 11.67° C | 34% | 1028.2 hPa | - | - | - | - |
| 1777619892 | 11.11° C | 39% | 1028.4 hPa | - | - | - | - |
| 1777618992 | 10° C | 44% | 1028.3 hPa | - | - | - | - |
| 1777618092 | 8.33° C | 47% | 1028.4 hPa | - | - | - | - |
| 1777617192 | 7.22° C | 50% | 1028.3 hPa | - | - | - | - |
| 1777616291 | 6.11° C | 58% | 1028.4 hPa | - | - | - | - |
| 1777615391 | 3.89° C | 62% | 1028.3 hPa | - | - | - | - |
| 1777614491 | 3.89° C | 63% | 1028.1 hPa | - | - | - | - |
| 1777613591 | 4.44° C | 65% | 1028.2 hPa | - | - | - | - |
| 1777612691 | 2.78° C | 72% | 1028 hPa | - | - | - | - |
| 1777611791 | 1.67° C | 72% | 1028.4 hPa | - | - | - | - |
| 1777610891 | 0° C | 78% | 1028.3 hPa | - | - | - | - |
| 1777609991 | -0.56° C | 78% | 1028.2 hPa | - | - | - | - |
| 1777608194 | -1.11° C | 78% | 1028.1 hPa | - | - | - | - |
| 1777607294 | -1.67° C | 79% | 1028.2 hPa | - | - | - | - |
| 1777606394 | -1.67° C | 78% | 1028.1 hPa | - | - | - | - |
| 1777605494 | -2.22° C | 78% | 1028 hPa | - | - | - | - |
| 1777604594 | -2.22° C | 76% | 1028.1 hPa | - | - | - | - |
| 1777603694 | -1.67° C | 75% | 1028 hPa | - | - | - | - |
| 1777602793 | -1.67° C | 76% | 1028 hPa | - | - | - | - |
| 1777601893 | -1.67° C | 75% | 1028.1 hPa | - | - | - | - |
| 1777583892 | 1.11° C | 61% | 1027.9 hPa | - | - | - | - |
| 1777574891 | 5° C | 48% | 1026.9 hPa | - | - | - | - |
| 1777573091 | 6.11° C | 45% | 1026.5 hPa | - | - | - | - |
* Rain since midnight (hover to see other rain measurements)
** Current wind speed in m/s (hover to see current wind gust speed)